sensor_id;sensor_type;location;lat;lon;timestamp;pressure;altitude;pressure_sealevel;temperature;humidity
55759;BME280;41678;52.126;20.664;2023-04-09T00:01:39;101045.50;;;7.89;85.59
55759;BME280;41678;52.126;20.664;2023-04-09T00:07:00;101041.09;;;7.87;86.13
55759;BME280;41678;52.126;20.664;2023-04-09T00:12:19;101040.19;;;7.83;86.60
55759;BME280;41678;52.126;20.664;2023-04-09T00:17:39;101039.34;;;7.87;86.31
55759;BME280;41678;52.126;20.664;2023-04-09T00:22:59;101033.19;;;7.82;87.08
55759;BME280;41678;52.126;20.664;2023-04-09T00:28:19;101027.88;;;7.79;87.69
55759;BME280;41678;52.126;20.664;2023-04-09T00:33:38;101036.63;;;7.76;87.15
55759;BME280;41678;52.126;20.664;2023-04-09T00:38:58;101026.94;;;7.72;88.19
55759;BME280;41678;52.126;20.664;2023-04-09T00:44:18;101034.00;;;7.76;87.16
55759;BME280;41678;52.126;20.664;2023-04-09T00:49:37;101029.56;;;7.72;87.45
55759;BME280;41678;52.126;20.664;2023-04-09T00:54:59;101022.66;;;7.77;86.78
55759;BME280;41678;52.126;20.664;2023-04-09T01:00:19;101012.13;;;7.76;86.68
55759;BME280;41678;52.126;20.664;2023-04-09T01:17:11;101011.28;;;7.78;86.62
55759;BME280;41678;52.126;20.664;2023-04-09T01:28:45;101022.69;;;7.80;86.94
55759;BME280;41678;52.126;20.664;2023-04-09T01:34:06;101027.84;;;7.76;86.75
55759;BME280;41678;52.126;20.664;2023-04-09T01:39:27;101029.56;;;7.72;86.98
55759;BME280;41678;52.126;20.664;2023-04-09T01:44:47;101037.44;;;7.74;86.80
55759;BME280;41678;52.126;20.664;2023-04-09T01:50:07;101037.41;;;7.72;86.89
55759;BME280;41678;52.126;20.664;2023-04-09T01:55:27;101019.84;;;7.62;87.37
55759;BME280;41678;52.126;20.664;2023-04-09T02:08:05;101047.72;;;7.55;87.52
55759;BME280;41678;52.126;20.664;2023-04-09T02:13:27;101050.28;;;7.52;87.66
55759;BME280;41678;52.126;20.664;2023-04-09T02:18:53;101052.88;;;7.50;87.06
55759;BME280;41678;52.126;20.664;2023-04-09T02:24:14;101053.78;;;7.53;87.31
55759;BME280;41678;52.126;20.664;2023-04-09T02:29:34;101054.59;;;7.48;87.12
55759;BME280;41678;52.126;20.664;2023-04-09T02:34:53;101048.56;;;7.54;87.34
55759;BME280;41678;52.126;20.664;2023-04-09T02:40:13;101045.06;;;7.54;87.18
55759;BME280;41678;52.126;20.664;2023-04-09T02:45:33;101046.75;;;7.48;86.94
55759;BME280;41678;52.126;20.664;2023-04-09T02:50:52;101051.94;;;7.47;87.22
55759;BME280;41678;52.126;20.664;2023-04-09T02:56:12;101042.38;;;7.49;87.26
55759;BME280;41678;52.126;20.664;2023-04-09T03:01:31;101042.34;;;7.46;86.88
55759;BME280;41678;52.126;20.664;2023-04-09T03:06:51;101040.56;;;7.45;86.86
55759;BME280;41678;52.126;20.664;2023-04-09T03:12:11;101036.19;;;7.44;87.33
55759;BME280;41678;52.126;20.664;2023-04-09T03:17:31;101037.91;;;7.42;86.89
55759;BME280;41678;52.126;20.664;2023-04-09T03:22:51;101032.66;;;7.39;87.51
55759;BME280;41678;52.126;20.664;2023-04-09T03:28:20;101031.72;;;7.35;87.69
55759;BME280;41678;52.126;20.664;2023-04-09T03:33:44;101033.47;;;7.36;87.28
55759;BME280;41678;52.126;20.664;2023-04-09T03:39:04;101027.25;;;7.29;87.52
55759;BME280;41678;52.126;20.664;2023-04-09T03:44:28;101032.47;;;7.26;87.42
55759;BME280;41678;52.126;20.664;2023-04-09T03:49:52;101022.81;;;7.23;86.96
55759;BME280;41678;52.126;20.664;2023-04-09T03:55:17;101024.66;;;7.29;87.23
55759;BME280;41678;52.126;20.664;2023-04-09T04:00:37;101023.81;;;7.33;87.51
55759;BME280;41678;52.126;20.664;2023-04-09T04:06:24;101032.53;;;7.31;87.55
55759;BME280;41678;52.126;20.664;2023-04-09T04:11:56;101024.59;;;7.26;87.18
55759;BME280;41678;52.126;20.664;2023-04-09T04:17:22;101014.25;;;7.34;87.52
55759;BME280;41678;52.126;20.664;2023-04-09T04:22:43;101019.34;;;7.25;87.47
55759;BME280;41678;52.126;20.664;2023-04-09T04:28:03;101013.19;;;7.22;87.66
55759;BME280;41678;52.126;20.664;2023-04-09T04:33:30;101022.75;;;7.17;88.07
55759;BME280;41678;52.126;20.664;2023-04-09T04:38:50;101034.09;;;7.16;88.33
55759;BME280;41678;52.126;20.664;2023-04-09T04:44:21;101039.28;;;7.13;88.46
55759;BME280;41678;52.126;20.664;2023-04-09T04:49:45;101041.81;;;7.08;88.24
55759;BME280;41678;52.126;20.664;2023-04-09T04:55:06;101057.50;;;7.05;88.12
55759;BME280;41678;52.126;20.664;2023-04-09T05:00:26;101059.19;;;7.03;88.29
55759;BME280;41678;52.126;20.664;2023-04-09T05:05:51;101064.41;;;7.02;87.97
55759;BME280;41678;52.126;20.664;2023-04-09T05:11:11;101064.41;;;7.02;87.56
55759;BME280;41678;52.126;20.664;2023-04-09T05:16:31;101063.53;;;7.01;88.09
55759;BME280;41678;52.126;20.664;2023-04-09T05:21:56;101067.97;;;7.07;87.99
55759;BME280;41678;52.126;20.664;2023-04-09T05:27:16;101061.03;;;7.09;88.68
55759;BME280;41678;52.126;20.664;2023-04-09T05:32:40;101063.72;;;7.14;89.62
55759;BME280;41678;52.126;20.664;2023-04-09T05:38:00;101059.38;;;7.14;89.39
55759;BME280;41678;52.126;20.664;2023-04-09T05:43:20;101067.28;;;7.19;89.48
55759;BME280;41678;52.126;20.664;2023-04-09T05:48:40;101059.53;;;7.27;88.77
55759;BME280;41678;52.126;20.664;2023-04-09T05:54:01;101059.53;;;7.27;89.02
55759;BME280;41678;52.126;20.664;2023-04-09T05:59:26;101055.22;;;7.29;89.24
55759;BME280;41678;52.126;20.664;2023-04-09T06:04:46;101053.50;;;7.32;89.59
55759;BME280;41678;52.126;20.664;2023-04-09T06:10:08;101074.53;;;7.37;89.01
55759;BME280;41678;52.126;20.664;2023-04-09T06:15:28;101070.22;;;7.42;88.57
55759;BME280;41678;52.126;20.664;2023-04-09T06:20:48;101077.28;;;7.46;88.41
55759;BME280;41678;52.126;20.664;2023-04-09T06:26:08;101087.03;;;7.57;88.83
55759;BME280;41678;52.126;20.664;2023-04-09T06:31:27;101081.84;;;7.60;88.64
55759;BME280;41678;52.126;20.664;2023-04-09T06:36:46;101089.81;;;7.68;88.95
55759;BME280;41678;52.126;20.664;2023-04-09T06:42:07;101087.22;;;7.72;89.16
55759;BME280;41678;52.126;20.664;2023-04-09T06:47:33;101083.91;;;7.86;88.92
55759;BME280;41678;52.126;20.664;2023-04-09T06:52:54;101083.28;;;8.05;88.88
55759;BME280;41678;52.126;20.664;2023-04-09T06:58:14;101078.19;;;8.19;89.49
55759;BME280;41678;52.126;20.664;2023-04-09T07:03:34;101086.09;;;8.24;89.64
55759;BME280;41678;52.126;20.664;2023-04-09T07:08:54;101086.03;;;8.18;89.90
55759;BME280;41678;52.126;20.664;2023-04-09T07:14:14;101094.03;;;8.30;90.00
55759;BME280;41678;52.126;20.664;2023-04-09T07:19:34;101083.56;;;8.33;90.24
55759;BME280;41678;52.126;20.664;2023-04-09T07:24:53;101086.31;;;8.44;89.86
55759;BME280;41678;52.126;20.664;2023-04-09T07:30:14;101094.34;;;8.55;89.95
55759;BME280;41678;52.126;20.664;2023-04-09T07:35:33;101097.94;;;8.67;90.04
55759;BME280;41678;52.126;20.664;2023-04-09T07:40:53;101102.41;;;8.75;89.75
55759;BME280;41678;52.126;20.664;2023-04-09T07:46:20;101106.88;;;8.90;90.19
55759;BME280;41678;52.126;20.664;2023-04-09T07:51:42;101107.78;;;8.91;90.34
55759;BME280;41678;52.126;20.664;2023-04-09T07:57:02;101102.59;;;9.00;90.31
55759;BME280;41678;52.126;20.664;2023-04-09T08:02:22;101105.28;;;9.08;90.18
55759;BME280;41678;52.126;20.664;2023-04-09T08:07:42;101109.72;;;9.17;90.51
55759;BME280;41678;52.126;20.664;2023-04-09T08:13:01;101102.81;;;9.28;90.02
55759;BME280;41678;52.126;20.664;2023-04-09T08:18:21;101116.00;;;9.39;90.44
55759;BME280;41678;52.126;20.664;2023-04-09T08:23:40;101109.13;;;9.58;90.67
55759;BME280;41678;52.126;20.664;2023-04-09T08:28:59;101113.50;;;9.59;90.52
55759;BME280;41678;52.126;20.664;2023-04-09T08:34:19;101114.41;;;9.66;90.53
55759;BME280;41678;52.126;20.664;2023-04-09T08:39:40;101104.00;;;9.85;90.30
55759;BME280;41678;52.126;20.664;2023-04-09T08:45:03;101111.91;;;9.86;90.20
55759;BME280;41678;52.126;20.664;2023-04-09T08:50:23;101107.53;;;9.88;90.62
55759;BME280;41678;52.126;20.664;2023-04-09T08:55:45;101111.06;;;9.92;90.31
55759;BME280;41678;52.126;20.664;2023-04-09T09:01:20;101095.31;;;10.01;90.64
55759;BME280;41678;52.126;20.664;2023-04-09T09:06:40;101105.00;;;10.16;90.15
55759;BME280;41678;52.126;20.664;2023-04-09T09:12:00;101103.28;;;10.23;90.23
55759;BME280;41678;52.126;20.664;2023-04-09T09:17:20;101108.56;;;10.28;90.51
55759;BME280;41678;52.126;20.664;2023-04-09T09:22:51;101120.91;;;10.41;90.46
55759;BME280;41678;52.126;20.664;2023-04-09T09:28:11;101120.06;;;10.47;90.18
55759;BME280;41678;52.126;20.664;2023-04-09T09:33:32;101123.56;;;10.55;89.86
55759;BME280;41678;52.126;20.664;2023-04-09T09:38:56;101130.59;;;10.64;90.02
55759;BME280;41678;52.126;20.664;2023-04-09T09:44:32;101127.09;;;10.70;89.45
55759;BME280;41678;52.126;20.664;2023-04-09T09:49:52;101132.38;;;10.73;89.45
55759;BME280;41678;52.126;20.664;2023-04-09T09:55:13;101126.22;;;10.65;89.29
55759;BME280;41678;52.126;20.664;2023-04-09T10:00:35;101126.22;;;10.65;89.77
55759;BME280;41678;52.126;20.664;2023-04-09T10:05:56;101125.34;;;10.66;89.87
55759;BME280;41678;52.126;20.664;2023-04-09T10:11:17;101121.84;;;10.81;89.33
55759;BME280;41678;52.126;20.664;2023-04-09T10:16:39;101118.34;;;10.72;89.66
55759;BME280;41678;52.126;20.664;2023-04-09T10:22:10;101128.84;;;10.74;89.48
55759;BME280;41678;52.126;20.664;2023-04-09T10:27:32;101114.84;;;10.78;89.53
55759;BME280;41678;52.126;20.664;2023-04-09T10:32:51;101095.50;;;10.82;89.40
55759;BME280;41678;52.126;20.664;2023-04-09T10:38:13;101109.56;;;11.09;88.41
55759;BME280;41678;52.126;20.664;2023-04-09T10:43:36;101113.94;;;11.13;88.35
55759;BME280;41678;52.126;20.664;2023-04-09T10:49:09;101106.91;;;11.25;88.34
55759;BME280;41678;52.126;20.664;2023-04-09T10:59:53;101120.94;;;11.45;88.28
55759;BME280;41678;52.126;20.664;2023-04-09T11:10:37;101113.00;;;11.58;88.21
55759;BME280;41678;52.126;20.664;2023-04-09T11:15:57;101106.81;;;11.65;86.95
55759;BME280;41678;52.126;20.664;2023-04-09T11:21:18;101115.59;;;11.72;85.70
55759;BME280;41678;52.126;20.664;2023-04-09T11:26:37;101103.25;;;11.74;86.30
55759;BME280;41678;52.126;20.664;2023-04-09T11:31:57;101101.47;;;11.85;85.65
55759;BME280;41678;52.126;20.664;2023-04-09T11:37:17;101103.22;;;11.93;85.38
55759;BME280;41678;52.126;20.664;2023-04-09T11:42:36;101100.56;;;12.00;84.69
55759;BME280;41678;52.126;20.664;2023-04-09T11:47:56;101093.50;;;12.07;84.66
55759;BME280;41678;52.126;20.664;2023-04-09T11:53:20;101082.94;;;12.09;85.27
55759;BME280;41678;52.126;20.664;2023-04-09T11:58:44;101092.53;;;12.21;85.93
55759;BME280;41678;52.126;20.664;2023-04-09T12:04:04;101084.59;;;12.28;85.74
55759;BME280;41678;52.126;20.664;2023-04-09T12:09:24;101080.13;;;12.37;84.91
55759;BME280;41678;52.126;20.664;2023-04-09T12:14:45;101085.34;;;12.49;83.69
55759;BME280;41678;52.126;20.664;2023-04-09T12:20:06;101085.31;;;12.51;84.66
55759;BME280;41678;52.126;20.664;2023-04-09T12:25:29;101086.22;;;12.51;85.18
55759;BME280;41678;52.126;20.664;2023-04-09T12:30:50;101086.16;;;12.59;85.29
55759;BME280;41678;52.126;20.664;2023-04-09T12:36:09;101084.38;;;12.63;84.60
55759;BME280;41678;52.126;20.664;2023-04-09T12:41:29;101085.25;;;12.66;84.25
55759;BME280;41678;52.126;20.664;2023-04-09T12:46:49;101075.63;;;12.54;84.36
55759;BME280;41678;52.126;20.664;2023-04-09T12:52:09;101076.50;;;12.55;84.67
55759;BME280;41678;52.126;20.664;2023-04-09T12:57:28;101077.31;;;12.63;85.12
55759;BME280;41678;52.126;20.664;2023-04-09T13:02:49;101068.44;;;12.75;84.57
55759;BME280;41678;52.126;20.664;2023-04-09T13:08:11;101058.75;;;12.74;84.55
55759;BME280;41678;52.126;20.664;2023-04-09T13:13:30;101063.16;;;12.73;84.82
55759;BME280;41678;52.126;20.664;2023-04-09T13:18:49;101062.28;;;12.71;85.14
55759;BME280;41678;52.126;20.664;2023-04-09T13:24:10;101059.63;;;12.73;85.15
55759;BME280;41678;52.126;20.664;2023-04-09T13:29:30;101044.59;;;12.83;84.46
55759;BME280;41678;52.126;20.664;2023-04-09T13:34:50;101044.53;;;12.87;84.58
55759;BME280;41678;52.126;20.664;2023-04-09T13:40:10;101036.56;;;12.94;84.09
55759;BME280;41678;52.126;20.664;2023-04-09T13:45:30;101036.44;;;13.04;83.36
55759;BME280;41678;52.126;20.664;2023-04-09T13:50:49;101035.56;;;13.04;83.76
55759;BME280;41678;52.126;20.664;2023-04-09T13:56:09;101039.00;;;13.12;84.08
55759;BME280;41678;52.126;20.664;2023-04-09T14:01:29;101043.38;;;13.16;84.43
55759;BME280;41678;52.126;20.664;2023-04-09T14:06:48;101030.09;;;13.21;84.59
55759;BME280;41678;52.126;20.664;2023-04-09T14:12:08;101041.53;;;13.25;83.87
55759;BME280;41678;52.126;20.664;2023-04-09T14:17:27;101024.84;;;13.18;84.20
55759;BME280;41678;52.126;20.664;2023-04-09T14:22:47;101029.22;;;13.24;83.88
55759;BME280;41678;52.126;20.664;2023-04-09T14:28:07;101026.59;;;13.21;84.24
55759;BME280;41678;52.126;20.664;2023-04-09T14:33:27;101029.25;;;13.17;84.37
55759;BME280;41678;52.126;20.664;2023-04-09T14:38:46;101025.75;;;13.15;83.98
55759;BME280;41678;52.126;20.664;2023-04-09T14:44:07;101024.00;;;13.16;84.11
55759;BME280;41678;52.126;20.664;2023-04-09T14:49:27;101017.91;;;13.09;84.29
55759;BME280;41678;52.126;20.664;2023-04-09T14:54:46;101009.94;;;13.11;84.71
55759;BME280;41678;52.126;20.664;2023-04-09T15:00:07;101013.34;;;13.22;83.85
55759;BME280;41678;52.126;20.664;2023-04-09T15:05:27;101002.13;;;13.01;83.96
55759;BME280;41678;52.126;20.664;2023-04-09T15:10:47;101015.34;;;13.01;84.18
55759;BME280;41678;52.126;20.664;2023-04-09T15:16:07;101016.19;;;13.02;84.14
55759;BME280;41678;52.126;20.664;2023-04-09T15:21:26;101021.47;;;13.03;84.49
55759;BME280;41678;52.126;20.664;2023-04-09T15:26:47;101015.41;;;12.94;84.42
55759;BME280;41678;52.126;20.664;2023-04-09T15:32:08;101009.22;;;12.93;84.29
55759;BME280;41678;52.126;20.664;2023-04-09T15:37:27;101023.22;;;13.03;84.14
55759;BME280;41678;52.126;20.664;2023-04-09T15:42:47;101024.16;;;12.99;84.48
55759;BME280;41678;52.126;20.664;2023-04-09T15:48:06;101020.66;;;12.95;84.86
55759;BME280;41678;52.126;20.664;2023-04-09T15:53:26;101018.06;;;12.92;84.97
55759;BME280;41678;52.126;20.664;2023-04-09T15:58:47;101018.88;;;12.99;85.11
55759;BME280;41678;52.126;20.664;2023-04-09T16:04:07;101022.50;;;12.88;84.81
55759;BME280;41678;52.126;20.664;2023-04-09T16:09:27;101028.72;;;12.83;84.76
55759;BME280;41678;52.126;20.664;2023-04-09T16:14:47;101026.09;;;12.81;85.07
55759;BME280;41678;52.126;20.664;2023-04-09T16:20:07;101037.59;;;12.77;85.09
55759;BME280;41678;52.126;20.664;2023-04-09T16:25:27;101032.38;;;12.68;85.08
55759;BME280;41678;52.126;20.664;2023-04-09T16:30:48;101035.94;;;12.64;85.10
55759;BME280;41678;52.126;20.664;2023-04-09T16:36:07;101033.31;;;12.57;85.07
55759;BME280;41678;52.126;20.664;2023-04-09T16:41:27;101037.81;;;12.49;85.30
55759;BME280;41678;52.126;20.664;2023-04-09T16:46:46;101036.97;;;12.42;85.51
55759;BME280;41678;52.126;20.664;2023-04-09T16:52:07;101044.03;;;12.39;85.60
55759;BME280;41678;52.126;20.664;2023-04-09T16:57:26;101044.09;;;12.32;85.98
55759;BME280;41678;52.126;20.664;2023-04-09T17:02:45;101038.81;;;12.28;86.06
55759;BME280;41678;52.126;20.664;2023-04-09T17:08:05;101048.56;;;12.21;85.81
55759;BME280;41678;52.126;20.664;2023-04-09T17:13:25;101050.34;;;12.14;85.68
55759;BME280;41678;52.126;20.664;2023-04-09T17:18:44;101044.22;;;12.08;86.29
55759;BME280;41678;52.126;20.664;2023-04-09T17:24:05;101049.56;;;12.01;86.03
55759;BME280;41678;52.126;20.664;2023-04-09T17:29:25;101073.28;;;11.97;86.07
55759;BME280;41678;52.126;20.664;2023-04-09T17:34:48;101068.03;;;11.87;86.26
55759;BME280;41678;52.126;20.664;2023-04-09T17:40:08;101073.38;;;11.76;86.02
55759;BME280;41678;52.126;20.664;2023-04-09T17:45:28;101085.72;;;11.68;86.03
55759;BME280;41678;52.126;20.664;2023-04-09T17:50:47;101090.13;;;11.60;85.99
55759;BME280;41678;52.126;20.664;2023-04-09T17:56:13;101092.81;;;11.54;86.51
55759;BME280;41678;52.126;20.664;2023-04-09T18:01:33;101094.56;;;11.47;86.52
55759;BME280;41678;52.126;20.664;2023-04-09T18:06:53;101097.22;;;11.42;86.17
55759;BME280;41678;52.126;20.664;2023-04-09T18:12:13;101107.75;;;11.36;86.24
55759;BME280;41678;52.126;20.664;2023-04-09T18:17:32;101108.66;;;11.26;86.51
55759;BME280;41678;52.126;20.664;2023-04-09T18:22:51;101106.91;;;11.18;86.38
55759;BME280;41678;52.126;20.664;2023-04-09T18:28:11;101111.31;;;11.13;86.68
55759;BME280;41678;52.126;20.664;2023-04-09T18:33:31;101106.91;;;11.08;86.51
55759;BME280;41678;52.126;20.664;2023-04-09T18:38:50;101123.59;;;11.02;86.80
55759;BME280;41678;52.126;20.664;2023-04-09T18:44:10;101126.25;;;10.96;86.97
55759;BME280;41678;52.126;20.664;2023-04-09T18:49:34;101139.44;;;10.93;86.67
55759;BME280;41678;52.126;20.664;2023-04-09T18:54:54;101137.66;;;10.88;86.73
55759;BME280;41678;52.126;20.664;2023-04-09T19:00:14;101131.50;;;10.82;86.96
55759;BME280;41678;52.126;20.664;2023-04-09T19:05:34;101139.41;;;10.75;86.75
55759;BME280;41678;52.126;20.664;2023-04-09T19:10:54;101128.00;;;10.70;86.84
55759;BME280;41678;52.126;20.664;2023-04-09T19:16:13;101127.97;;;10.64;86.70
55759;BME280;41678;52.126;20.664;2023-04-09T19:21:33;101130.59;;;10.59;86.76
55759;BME280;41678;52.126;20.664;2023-04-09T19:26:54;101134.09;;;10.52;86.87
55759;BME280;41678;52.126;20.664;2023-04-09T19:32:14;101134.06;;;10.46;86.82
55759;BME280;41678;52.126;20.664;2023-04-09T19:37:35;101142.78;;;10.39;86.87
55759;BME280;41678;52.126;20.664;2023-04-09T19:42:55;101132.25;;;10.35;86.58
55759;BME280;41678;52.126;20.664;2023-04-09T19:48:15;101126.97;;;10.28;86.72
55759;BME280;41678;52.126;20.664;2023-04-09T19:53:35;101128.72;;;10.24;86.55
55759;BME280;41678;52.126;20.664;2023-04-09T19:58:56;101130.47;;;10.22;87.02
55759;BME280;41678;52.126;20.664;2023-04-09T20:04:15;101148.88;;;10.19;86.78
55759;BME280;41678;52.126;20.664;2023-04-09T20:09:35;101144.47;;;10.15;86.72
55759;BME280;41678;52.126;20.664;2023-04-09T20:15:00;101140.94;;;10.13;86.80
55759;BME280;41678;52.126;20.664;2023-04-09T20:20:20;101145.34;;;10.18;86.94
55759;BME280;41678;52.126;20.664;2023-04-09T20:25:39;101133.94;;;10.19;87.08
55759;BME280;41678;52.126;20.664;2023-04-09T20:31:01;101139.19;;;10.15;86.86
55759;BME280;41678;52.126;20.664;2023-04-09T20:36:22;101145.31;;;10.11;86.93
55759;BME280;41678;52.126;20.664;2023-04-09T20:41:41;101142.69;;;10.07;86.79
55759;BME280;41678;52.126;20.664;2023-04-09T20:47:01;101137.41;;;10.04;86.70
55759;BME280;41678;52.126;20.664;2023-04-09T20:52:20;101133.91;;;10.05;86.69
55759;BME280;41678;52.126;20.664;2023-04-09T20:57:40;101138.25;;;10.00;87.10
55759;BME280;41678;52.126;20.664;2023-04-09T21:02:59;101142.63;;;9.95;87.50
55759;BME280;41678;52.126;20.664;2023-04-09T21:08:20;101131.22;;;9.90;87.50
55759;BME280;41678;52.126;20.664;2023-04-09T21:13:39;101132.09;;;9.89;87.08
55759;BME280;41678;52.126;20.664;2023-04-09T21:18:59;101131.16;;;9.84;87.01
55759;BME280;41678;52.126;20.664;2023-04-09T21:24:25;101126.78;;;9.80;87.30
55759;BME280;41678;52.126;20.664;2023-04-09T21:29:45;101128.50;;;9.77;86.94
55759;BME280;41678;52.126;20.664;2023-04-09T21:35:05;101138.16;;;9.78;87.18
55759;BME280;41678;52.126;20.664;2023-04-09T21:40:24;101135.53;;;9.75;86.96
55759;BME280;41678;52.126;20.664;2023-04-09T21:45:44;101141.66;;;9.71;87.60
55759;BME280;41678;52.126;20.664;2023-04-09T21:51:08;101142.44;;;9.61;87.38
55759;BME280;41678;52.126;20.664;2023-04-09T21:56:27;101142.44;;;9.59;87.33
55759;BME280;41678;52.126;20.664;2023-04-09T22:01:47;101147.66;;;9.55;87.10
55759;BME280;41678;52.126;20.664;2023-04-09T22:07:08;101140.59;;;9.47;87.73
55759;BME280;41678;52.126;20.664;2023-04-09T22:12:28;101141.44;;;9.42;87.53
55759;BME280;41678;52.126;20.664;2023-04-09T22:17:47;101135.28;;;9.38;87.36
55759;BME280;41678;52.126;20.664;2023-04-09T22:23:06;101138.75;;;9.31;87.38
55759;BME280;41678;52.126;20.664;2023-04-09T22:28:28;101140.41;;;9.23;87.43
55759;BME280;41678;52.126;20.664;2023-04-09T22:33:48;101142.13;;;9.14;87.11
55759;BME280;41678;52.126;20.664;2023-04-09T22:39:08;101138.53;;;9.06;87.08
55759;BME280;41678;52.126;20.664;2023-04-09T22:44:27;101133.22;;;8.97;87.17
55759;BME280;41678;52.126;20.664;2023-04-09T22:49:50;101133.97;;;8.85;87.35
55759;BME280;41678;52.126;20.664;2023-04-09T22:55:11;101133.03;;;8.78;87.41
55759;BME280;41678;52.126;20.664;2023-04-09T23:00:32;101132.09;;;8.70;87.41
55759;BME280;41678;52.126;20.664;2023-04-09T23:05:51;101135.47;;;8.59;87.19
55759;BME280;41678;52.126;20.664;2023-04-09T23:11:10;101143.28;;;8.52;87.34
55759;BME280;41678;52.126;20.664;2023-04-09T23:16:30;101146.66;;;8.43;87.40
55759;BME280;41678;52.126;20.664;2023-04-09T23:21:50;101136.00;;;8.30;87.70
55759;BME280;41678;52.126;20.664;2023-04-09T23:27:10;101131.56;;;8.23;87.11
55759;BME280;41678;52.126;20.664;2023-04-09T23:32:29;101137.59;;;8.16;87.17
55759;BME280;41678;52.126;20.664;2023-04-09T23:37:49;101137.50;;;8.06;87.65
55759;BME280;41678;52.126;20.664;2023-04-09T23:43:09;101130.34;;;7.93;87.30
55759;BME280;41678;52.126;20.664;2023-04-09T23:48:29;101121.38;;;7.75;88.36
55759;BME280;41678;52.126;20.664;2023-04-09T23:53:49;101129.22;;;7.77;87.97
55759;BME280;41678;52.126;20.664;2023-04-09T23:59:08;101129.94;;;7.65;87.73
